Falcon — WBE7134 — position and weather

sailwx.info

Track history (hours):
 
Tides and Currents Weather Stations Pressure Air Temp Water Temp Dewpoint Dewpoint Depression Visibility Wind Speed Wind Dir Waves Ship Positions

Falcon

Owner: Allied Transportation Company, NORFOLK, VA. More information available from US FCC via Universal Licensing System and Coast Guard Vessel Documentation Center.

Last reported at 2016-Aug-25 22:33 UTC. Time now 2016-Aug-31 16:07 UTC.
Position N 25°27' W 080°03'.

Length 37 m; draft 8 m.

Type: Tug. MMSI: 366976720.

Date/timePositionNaut miles runAvg speedWind from/ knotsBaromVisibWave heightAir tempDewpointWater temp
2016-Aug-25 22:33N 25°27' W 080°03'5 5.0
2016-Aug-25 21:33N 25°32' W 080°03'5 4.7
2016-Aug-25 20:34N 25°36' W 080°03'5 4.8
2016-Aug-25 19:33N 25°41' W 080°03'5 5.5
2016-Aug-25 18:33N 25°47' W 080°04'6 5.8
2016-Aug-25 17:33N 25°52' W 080°04'5 5.3
2016-Aug-25 16:33N 25°58' W 080°03'6 5.8
2016-Aug-25 15:33N 26°03' W 080°03'6 5.8
2016-Aug-25 14:33N 26°09' W 080°03'7 6.7
2016-Aug-25 13:33N 26°16' W 080°02'6 6.5
2016-Aug-25 12:33N 26°22' W 080°02'6 6.1
2016-Aug-25 11:34N 26°28' W 080°01'6 5.6
2016-Aug-25 10:33N 26°34' W 080°00'10 4.7
2016-Aug-25 08:31N 26°44' W 080°01'3 0.1
2016-Aug-24 01:33N 26°46' W 080°03'4 4.4
2016-Aug-24 00:33N 26°50' W 080°00'7 6.7
2016-Aug-23 23:33N 26°57' W 080°00'291 8.3
2016-Aug-22 12:27N 31°46' W 080°33'10 8.8
2016-Aug-22 11:17N 31°55' W 080°27'  
2016-Aug-19 13:25N 39°18' W 074°15'8 8.6
2016-Aug-19 12:28N 39°25' W 074°11'8 8.8
2016-Aug-19 11:33N 39°33' W 074°06'9 8.6
2016-Aug-19 10:30N 39°41' W 074°01'8 8.6
2016-Aug-19 09:33N 39°48' W 073°57'9 8.5
2016-Aug-19 08:33N 39°57' W 073°57'9 8.6
2016-Aug-19 07:31N 40°06' W 073°56'10 8.8
2016-Aug-19 06:23N 40°16' W 073°55'8 8.8
2016-Aug-19 05:26N 40°24' W 073°54'7 8.3
2016-Aug-19 04:33N 40°31' W 073°59'9 9.4
2016-Aug-19 03:33N 40°39' W 074°03'8 7.5
2016-Aug-19 02:33N 40°46' W 074°00'6 5.8
2016-Aug-19 01:32N 40°52' W 073°57'  
Track history (hours):
 
Tides and Currents Weather Stations Pressure Air Temp Water Temp Dewpoint Dewpoint Depression Visibility Wind Speed Wind Dir Waves Ship Positions

Falcon

Owner: Allied Transportation Company, NORFOLK, VA. More information available from US FCC via Universal Licensing System and Coast Guard Vessel Documentation Center.

Last reported at 2016-Aug-25 22:33 UTC. Time now 2016-Aug-31 16:07 UTC.
Position N 25°27' W 080°03'.

Length 37 m; draft 8 m.

Type: Tug. MMSI: 366976720.

Date/timePositionNaut miles runAvg speedWind from/ knotsBaromVisibWave heightAir tempDewpointWater temp
2016-Aug-25 22:33N 25°27' W 080°03'5 5.0
2016-Aug-25 21:33N 25°32' W 080°03'5 4.7
2016-Aug-25 20:34N 25°36' W 080°03'5 4.8
2016-Aug-25 19:33N 25°41' W 080°03'5 5.5
2016-Aug-25 18:33N 25°47' W 080°04'6 5.8
2016-Aug-25 17:33N 25°52' W 080°04'5 5.3
2016-Aug-25 16:33N 25°58' W 080°03'6 5.8
2016-Aug-25 15:33N 26°03' W 080°03'6 5.8
2016-Aug-25 14:33N 26°09' W 080°03'7 6.7
2016-Aug-25 13:33N 26°16' W 080°02'6 6.5
2016-Aug-25 12:33N 26°22' W 080°02'6 6.1
2016-Aug-25 11:34N 26°28' W 080°01'6 5.6
2016-Aug-25 10:33N 26°34' W 080°00'10 4.7
2016-Aug-25 08:31N 26°44' W 080°01'3 0.1
2016-Aug-24 01:33N 26°46' W 080°03'4 4.4
2016-Aug-24 00:33N 26°50' W 080°00'7 6.7
2016-Aug-23 23:33N 26°57' W 080°00'291 8.3
2016-Aug-22 12:27N 31°46' W 080°33'10 8.8
2016-Aug-22 11:17N 31°55' W 080°27'  
2016-Aug-19 13:25N 39°18' W 074°15'8 8.6
2016-Aug-19 12:28N 39°25' W 074°11'8 8.8
2016-Aug-19 11:33N 39°33' W 074°06'9 8.6
2016-Aug-19 10:30N 39°41' W 074°01'8 8.6
2016-Aug-19 09:33N 39°48' W 073°57'9 8.5
2016-Aug-19 08:33N 39°57' W 073°57'9 8.6
2016-Aug-19 07:31N 40°06' W 073°56'10 8.8
2016-Aug-19 06:23N 40°16' W 073°55'8 8.8
2016-Aug-19 05:26N 40°24' W 073°54'7 8.3
2016-Aug-19 04:33N 40°31' W 073°59'9 9.4
2016-Aug-19 03:33N 40°39' W 074°03'8 7.5
2016-Aug-19 02:33N 40°46' W 074°00'6 5.8
2016-Aug-19 01:32N 40°52' W 073°57'  

Dump ship's entire track history